Time;durP1;ratioP1;P1;durP2;ratioP2;P2;SDS_P1;SDS_P2;PMS_P1;PMS_P2;Temp;Humidity;BMP_temperature;BMP_pressure;BME280_temperature;BME280_humidity;BME280_pressure;Samples;Min_cycle;Max_cycle;Signal;HPM_P1;HPM_P2
2021/12/30 00:00:57;;;;;;;22.53;7.30;;;13.00;99.90;;;;;;5056312;28;20691;-68
2021/12/30 00:03:25;;;;;;;16.17;7.00;;;12.80;99.90;;;;;;5058746;28;20449;-68
2021/12/30 00:05:53;;;;;;;9.30;6.27;;;12.80;99.90;;;;;;5047310;28;21742;-68
2021/12/30 00:08:21;;;;;;;10.20;5.90;;;12.70;99.90;;;;;;5058270;28;20449;-68
2021/12/30 00:10:48;;;;;;;12.50;6.60;;;12.60;99.90;;;;;;5038623;28;20463;-68
2021/12/30 00:13:15;;;;;;;11.00;5.93;;;12.60;99.90;;;;;;5048233;28;20473;-68
2021/12/30 00:15:42;;;;;;;11.30;5.40;;;12.60;99.90;;;;;;5063849;28;20478;-68
2021/12/30 00:18:11;;;;;;;13.43;4.97;;;12.60;99.90;;;;;;5063528;28;20549;-68
2021/12/30 00:20:38;;;;;;;10.70;4.20;;;12.60;99.90;;;;;;5054753;28;20541;-69
2021/12/30 00:23:08;;;;;;;14.37;6.10;;;12.60;99.90;;;;;;5049996;28;20607;-68
2021/12/30 00:25:40;;;;;;;10.70;4.70;;;12.60;99.90;;;;;;5059771;28;20489;-68
2021/12/30 00:28:08;;;;;;;22.60;6.67;;;12.60;99.90;;;;;;5050301;28;20473;-69
2021/12/30 00:30:35;;;;;;;7.40;4.37;;;12.50;99.90;;;;;;5067896;28;20553;-69
2021/12/30 00:33:02;;;;;;;12.70;5.17;;;12.50;99.90;;;;;;5057962;28;20809;-69
2021/12/30 00:35:29;;;;;;;21.00;7.40;;;12.60;99.90;;;;;;5053149;28;20596;-68
2021/12/30 00:37:56;;;;;;;10.67;6.07;;;12.50;99.90;;;;;;5059131;28;20458;-68
2021/12/30 00:40:25;;;;;;;22.60;5.77;;;12.50;99.90;;;;;;5056104;28;21334;-66
2021/12/30 00:42:52;;;;;;;20.03;9.70;;;12.50;99.90;;;;;;5050976;28;20941;-69
2021/12/30 00:45:19;;;;;;;16.53;7.13;;;12.50;99.90;;;;;;5048617;28;20536;-68
2021/12/30 00:47:46;;;;;;;20.40;8.80;;;12.50;99.90;;;;;;5058563;28;20541;-68
2021/12/30 00:50:14;;;;;;;20.27;6.77;;;12.60;99.90;;;;;;5053856;28;20499;-69
2021/12/30 00:52:41;;;;;;;12.17;7.10;;;12.50;99.90;;;;;;5055308;28;20462;-69
2021/12/30 00:55:09;;;;;;;8.90;5.13;;;12.50;99.90;;;;;;5057483;28;20555;-68
2021/12/30 00:57:37;;;;;;;16.03;9.43;;;12.60;99.90;;;;;;5047606;28;20464;-69
2021/12/30 01:00:07;;;;;;;18.20;7.93;;;12.50;99.90;;;;;;5060724;28;20457;-69
2021/12/30 01:02:34;;;;;;;13.00;6.20;;;12.40;99.90;;;;;;5050629;28;20449;-69
2021/12/30 01:05:04;;;;;;;9.67;4.07;;;12.40;99.90;;;;;;5064521;28;20949;-69
2021/12/30 01:07:31;;;;;;;5.87;3.73;;;12.40;99.90;;;;;;5068262;28;21022;-69
2021/12/30 01:09:59;;;;;;;8.07;3.60;;;12.40;99.90;;;;;;5063210;28;21909;-68
2021/12/30 01:12:26;;;;;;;9.67;5.90;;;12.40;99.90;;;;;;5044665;28;20457;-69
2021/12/30 01:14:54;;;;;;;12.43;6.17;;;12.40;99.90;;;;;;5030820;28;20776;-67
2021/12/30 01:17:26;;;;;;;20.93;5.00;;;12.40;99.90;;;;;;5044471;28;20493;-67
2021/12/30 01:19:53;;;;;;;20.10;4.30;;;12.50;99.90;;;;;;5054002;28;20495;-67
2021/12/30 01:22:24;;;;;;;12.83;5.23;;;12.50;99.90;;;;;;5063903;28;20458;-67
2021/12/30 01:24:51;;;;;;;54.20;5.73;;;12.50;99.90;;;;;;5044480;28;20500;-67
2021/12/30 01:27:20;;;;;;;15.33;5.33;;;12.60;99.90;;;;;;5048086;28;20881;-67
2021/12/30 01:29:48;;;;;;;8.10;5.13;;;12.60;99.90;;;;;;5066063;28;20549;-67
2021/12/30 01:32:17;;;;;;;24.00;6.77;;;12.60;99.90;;;;;;5058580;28;20635;-67
2021/12/30 01:34:44;;;;;;;15.10;5.20;;;12.60;99.90;;;;;;5060899;28;20512;-68
2021/12/30 01:37:13;;;;;;;13.70;3.50;;;12.50;99.90;;;;;;5031553;28;20466;-66
2021/12/30 01:39:41;;;;;;;10.33;4.60;;;12.50;99.90;;;;;;5058058;28;20462;-67
2021/12/30 01:42:10;;;;;;;22.93;5.40;;;12.50;99.90;;;;;;5050378;28;20954;-67
2021/12/30 01:44:37;;;;;;;11.20;5.20;;;12.50;99.90;;;;;;5047384;28;20564;-67
2021/12/30 01:47:05;;;;;;;7.40;4.30;;;12.60;99.90;;;;;;5053134;28;20476;-67
2021/12/30 01:49:34;;;;;;;19.83;4.90;;;12.60;99.90;;;;;;5051708;28;20467;-68
2021/12/30 01:52:02;;;;;;;6.37;4.17;;;12.60;99.90;;;;;;5070325;28;20467;-67
2021/12/30 01:54:29;;;;;;;2.40;1.90;;;12.70;99.90;;;;;;5066971;28;21065;-67
2021/12/30 01:57:01;;;;;;;12.07;6.50;;;12.70;99.90;;;;;;5054239;28;20614;-68
2021/12/30 01:59:28;;;;;;;21.67;6.83;;;12.80;99.90;;;;;;5066976;28;21005;-68
2021/12/30 02:01:57;;;;;;;14.17;5.30;;;12.80;99.90;;;;;;5060178;28;20592;-68
2021/12/30 02:04:25;;;;;;;19.00;4.70;;;12.70;99.90;;;;;;5050865;28;21193;-66
2021/12/30 02:06:53;;;;;;;4.90;3.33;;;12.70;99.90;;;;;;5040713;28;20477;-67
2021/12/30 02:09:21;;;;;;;7.77;5.40;;;12.70;99.90;;;;;;5051698;28;20450;-67
2021/12/30 02:11:48;;;;;;;12.00;3.77;;;12.70;99.90;;;;;;5056477;28;20773;-67
2021/12/30 02:14:15;;;;;;;11.53;6.20;;;12.60;99.90;;;;;;5040429;28;20464;-67
2021/12/30 02:16:43;;;;;;;7.23;4.50;;;12.70;99.90;;;;;;5058720;28;20478;-68
2021/12/30 02:19:10;;;;;;;4.20;3.67;;;12.70;99.90;;;;;;5061072;28;20538;-67
2021/12/30 02:21:38;;;;;;;16.57;4.33;;;12.70;99.90;;;;;;5047434;28;20494;-68
2021/12/30 02:24:06;;;;;;;13.73;6.07;;;12.70;99.90;;;;;;5064756;28;20494;-68
2021/12/30 02:26:34;;;;;;;17.00;5.40;;;12.70;99.90;;;;;;5060756;28;20978;-68
2021/12/30 02:29:01;;;;;;;8.60;4.73;;;12.70;99.90;;;;;;5043980;28;20611;-69
2021/12/30 02:31:30;;;;;;;7.10;3.80;;;12.70;99.90;;;;;;5049413;28;21099;-68
2021/12/30 02:33:58;;;;;;;10.80;4.10;;;12.80;99.90;;;;;;5063014;28;20542;-68
2021/12/30 02:36:28;;;;;;;20.30;6.80;;;12.80;99.90;;;;;;5054374;28;20469;-68
2021/12/30 02:38:57;;;;;;;8.83;4.90;;;12.80;99.90;;;;;;5058403;28;22824;-68
2021/12/30 02:41:26;;;;;;;16.27;4.67;;;12.80;99.90;;;;;;5048817;28;20560;-68
2021/12/30 02:43:54;;;;;;;17.80;5.57;;;12.80;99.90;;;;;;5062933;28;21076;-68
2021/12/30 02:46:23;;;;;;;8.17;3.73;;;12.80;99.90;;;;;;5049819;28;20611;-69
2021/12/30 02:48:52;;;;;;;9.53;3.67;;;12.80;99.90;;;;;;5063093;28;20457;-69
2021/12/30 02:51:20;;;;;;;13.17;6.40;;;12.90;99.90;;;;;;5036260;28;20540;-67
2021/12/30 02:53:48;;;;;;;7.13;3.70;;;12.80;99.90;;;;;;5056010;28;20458;-67
2021/12/30 02:56:17;;;;;;;8.97;4.47;;;12.90;99.90;;;;;;5057489;28;21439;-67
2021/12/30 02:58:44;;;;;;;13.80;4.70;;;12.90;99.90;;;;;;5060151;28;20458;-67
2021/12/30 03:01:14;;;;;;;11.23;3.37;;;12.90;99.90;;;;;;5054179;28;20931;-67
2021/12/30 03:03:42;;;;;;;9.30;4.33;;;12.90;99.90;;;;;;5062159;28;20496;-68
2021/12/30 03:06:10;;;;;;;19.87;5.63;;;12.90;99.90;;;;;;5057218;28;20612;-66
2021/12/30 03:08:38;;;;;;;16.03;6.07;;;12.90;99.90;;;;;;5063767;28;20469;-67
2021/12/30 03:11:06;;;;;;;16.10;4.47;;;13.00;99.90;;;;;;5042669;28;20487;-67
2021/12/30 03:13:36;;;;;;;12.90;4.20;;;13.00;99.90;;;;;;5062880;28;20461;-68
2021/12/30 03:16:06;;;;;;;10.00;4.00;;;13.00;99.90;;;;;;5037447;28;20508;-67
2021/12/30 03:18:35;;;;;;;4.70;2.57;;;12.90;99.90;;;;;;5055051;28;20462;-68
2021/12/30 03:21:04;;;;;;;7.57;2.73;;;12.90;99.90;;;;;;5053906;28;20616;-68
2021/12/30 03:23:31;;;;;;;16.10;5.17;;;12.80;99.90;;;;;;5057573;28;20540;-67
2021/12/30 03:25:58;;;;;;;6.60;4.13;;;12.80;99.90;;;;;;5048383;28;20477;-68
2021/12/30 03:28:25;;;;;;;9.03;4.07;;;12.80;99.90;;;;;;5039190;28;20454;-67
2021/12/30 03:30:58;;;;;;;8.07;4.20;;;12.80;99.90;;;;;;5042100;28;20549;-67
2021/12/30 03:33:26;;;;;;;8.60;3.60;;;12.80;99.90;;;;;;5048623;28;20449;-68
2021/12/30 03:35:53;;;;;;;12.43;5.60;;;12.70;99.90;;;;;;5064541;28;20558;-67
2021/12/30 03:38:21;;;;;;;4.37;2.63;;;12.70;99.90;;;;;;5075030;28;20486;-67
2021/12/30 03:40:48;;;;;;;11.23;5.00;;;12.70;99.90;;;;;;5065770;28;20458;-67
2021/12/30 03:43:15;;;;;;;11.60;3.00;;;12.60;99.90;;;;;;5046493;28;20464;-67
2021/12/30 03:45:43;;;;;;;6.50;3.63;;;12.50;99.90;;;;;;5059450;28;20572;-68
2021/12/30 03:48:11;;;;;;;17.03;4.17;;;12.60;99.90;;;;;;5047300;28;21611;-68
2021/12/30 03:50:43;;;;;;;26.47;5.00;;;12.60;99.90;;;;;;5045822;28;20959;-67
2021/12/30 03:53:12;;;;;;;19.03;5.23;;;12.60;99.90;;;;;;5065100;28;20449;-68
2021/12/30 03:55:39;;;;;;;10.33;4.00;;;12.60;99.90;;;;;;5055746;28;20516;-68
2021/12/30 03:58:07;;;;;;;10.43;4.50;;;12.70;99.90;;;;;;5064486;28;20557;-69
2021/12/30 04:00:35;;;;;;;13.80;5.27;;;12.80;99.90;;;;;;5053268;28;20544;-68
2021/12/30 04:03:02;;;;;;;10.37;6.40;;;12.70;99.90;;;;;;5035199;28;20537;-67
2021/12/30 04:05:31;;;;;;;7.97;6.17;;;12.70;99.90;;;;;;5030738;28;22538;-67
2021/12/30 04:07:58;;;;;;;11.63;5.30;;;12.80;99.90;;;;;;5050178;28;21214;-67
2021/12/30 04:10:25;;;;;;;19.30;4.50;;;12.80;99.90;;;;;;5034312;28;20532;-67
2021/12/30 04:12:53;;;;;;;13.17;6.60;;;12.90;99.90;;;;;;5048356;28;20531;-67
2021/12/30 04:15:21;;;;;;;9.00;4.03;;;12.80;99.90;;;;;;5041471;28;20545;-67
2021/12/30 04:17:48;;;;;;;10.53;4.27;;;12.90;99.90;;;;;;5036529;28;20488;-67
2021/12/30 04:20:16;;;;;;;16.43;5.03;;;12.90;99.90;;;;;;5044939;28;20458;-67
2021/12/30 04:22:45;;;;;;;10.93;3.63;;;13.00;99.90;;;;;;5049795;28;20945;-67
2021/12/30 04:25:14;;;;;;;5.90;4.00;;;13.00;99.90;;;;;;5061638;28;20560;-67
2021/12/30 04:27:42;;;;;;;10.07;4.87;;;13.00;99.90;;;;;;5044570;28;20458;-67
2021/12/30 04:30:11;;;;;;;21.90;5.30;;;13.00;99.90;;;;;;5058249;28;20546;-67
2021/12/30 04:32:39;;;;;;;10.70;4.27;;;13.10;99.90;;;;;;5044650;28;20461;-67
2021/12/30 04:35:07;;;;;;;22.43;6.70;;;13.00;99.90;;;;;;5046568;28;21604;-67
2021/12/30 04:37:35;;;;;;;30.73;8.27;;;13.10;99.90;;;;;;5047601;28;20954;-68
2021/12/30 04:40:04;;;;;;;11.50;7.03;;;13.00;99.90;;;;;;5050257;28;20449;-68
2021/12/30 04:42:31;;;;;;;14.33;5.30;;;13.00;99.90;;;;;;5062676;28;20570;-67
2021/12/30 04:44:58;;;;;;;12.40;6.17;;;13.10;99.90;;;;;;5054925;28;20559;-67
2021/12/30 04:47:26;;;;;;;8.07;4.77;;;13.00;99.90;;;;;;5060442;28;20585;-67
2021/12/30 04:49:56;;;;;;;13.47;5.30;;;13.10;99.90;;;;;;5030438;28;21524;-67
2021/12/30 04:52:23;;;;;;;16.20;7.40;;;13.00;99.90;;;;;;5035145;28;20476;-67
2021/12/30 04:54:50;;;;;;;13.03;4.57;;;13.10;99.90;;;;;;5042670;28;20584;-67
2021/12/30 04:57:19;;;;;;;8.33;4.43;;;13.00;99.90;;;;;;5052786;28;20918;-67
2021/12/30 04:59:46;;;;;;;8.80;4.97;;;13.00;99.90;;;;;;5045505;28;20459;-67
2021/12/30 05:02:13;;;;;;;8.13;4.53;;;13.10;99.90;;;;;;5051966;28;20455;-68
2021/12/30 05:04:40;;;;;;;15.80;5.20;;;13.10;99.90;;;;;;5049864;28;20462;-67
2021/12/30 05:07:08;;;;;;;15.53;4.57;;;13.10;99.90;;;;;;5049659;28;20485;-67
2021/12/30 05:09:34;;;;;;;7.17;4.00;;;13.10;99.90;;;;;;5039047;28;20460;-68
2021/12/30 05:12:02;;;;;;;3.50;2.90;;;13.10;99.90;;;;;;5049866;28;20508;-68
2021/12/30 05:14:30;;;;;;;8.63;3.27;;;13.10;99.90;;;;;;5067020;28;21091;-68
2021/12/30 05:17:02;;;;;;;6.80;4.40;;;13.10;99.90;;;;;;5065496;28;21899;-68
2021/12/30 05:19:30;;;;;;;7.93;3.00;;;13.20;99.90;;;;;;5066659;28;20459;-67
2021/12/30 05:21:57;;;;;;;8.70;4.93;;;13.20;99.90;;;;;;5048052;28;20466;-68
2021/12/30 05:24:24;;;;;;;13.20;6.27;;;13.30;99.90;;;;;;5038485;28;20461;-67
2021/12/30 05:26:51;;;;;;;12.93;5.93;;;13.30;99.90;;;;;;5050376;28;20605;-68
2021/12/30 05:29:18;;;;;;;5.17;3.17;;;13.30;99.90;;;;;;5056099;28;20565;-67
2021/12/30 05:31:47;;;;;;;5.80;3.20;;;13.20;99.90;;;;;;5039421;28;20494;-68
2021/12/30 05:34:14;;;;;;;5.90;3.10;;;13.30;99.90;;;;;;5050394;28;20511;-68
2021/12/30 05:36:41;;;;;;;1.40;1.10;;;13.20;99.90;;;;;;5036298;28;20524;-68
2021/12/30 05:39:10;;;;;;;2.00;1.30;;;13.20;99.90;;;;;;5055808;28;20923;-68
2021/12/30 05:41:37;;;;;;;9.03;3.33;;;13.20;99.90;;;;;;5039160;28;20449;-68
2021/12/30 05:44:04;;;;;;;2.77;2.20;;;13.30;99.90;;;;;;5061552;28;20522;-68
2021/12/30 05:46:31;;;;;;;4.00;2.70;;;13.20;99.90;;;;;;5019341;28;20485;-67
2021/12/30 05:48:59;;;;;;;2.23;2.03;;;13.20;99.90;;;;;;5046388;28;20887;-68
2021/12/30 05:51:26;;;;;;;6.50;2.60;;;13.20;99.90;;;;;;5052752;28;20465;-68
2021/12/30 05:53:53;;;;;;;2.70;1.70;;;13.30;99.90;;;;;;5042245;28;20544;-66
2021/12/30 05:56:20;;;;;;;1.67;1.53;;;13.40;99.90;;;;;;5038527;28;21461;-67
2021/12/30 05:58:47;;;;;;;2.63;1.90;;;13.40;99.90;;;;;;5053784;28;20546;-68
2021/12/30 06:01:14;;;;;;;2.73;1.73;;;13.40;99.90;;;;;;5060940;28;20461;-68
2021/12/30 06:03:42;;;;;;;6.00;1.73;;;13.30;99.90;;;;;;5058170;28;20579;-67
2021/12/30 06:06:10;;;;;;;2.93;1.37;;;13.30;99.90;;;;;;5022487;28;20534;-67
2021/12/30 06:08:37;;;;;;;3.50;2.03;;;13.40;99.90;;;;;;5050398;28;20534;-69
2021/12/30 06:11:04;;;;;;;1.47;1.27;;;13.40;99.90;;;;;;5047061;28;20464;-68
2021/12/30 06:13:31;;;;;;;4.03;1.87;;;13.30;99.90;;;;;;5039736;28;20473;-68
2021/12/30 06:15:58;;;;;;;3.37;1.37;;;13.40;99.90;;;;;;5051300;28;21153;-68
2021/12/30 06:18:25;;;;;;;2.30;1.40;;;13.30;99.90;;;;;;5065835;28;20549;-68
2021/12/30 06:20:52;;;;;;;2.20;1.47;;;13.30;99.90;;;;;;5067922;28;20806;-67
2021/12/30 06:23:21;;;;;;;1.23;1.10;;;13.30;99.90;;;;;;5070872;28;20548;-68
2021/12/30 06:25:48;;;;;;;1.10;0.90;;;13.40;99.90;;;;;;5044284;28;20481;-68
2021/12/30 06:28:14;;;;;;;7.03;1.40;;;13.40;99.90;;;;;;5074837;28;20557;-68
2021/12/30 06:30:41;;;;;;;2.80;1.60;;;13.40;99.90;;;;;;5059304;28;20597;-66
2021/12/30 06:33:09;;;;;;;2.17;1.07;;;13.40;99.90;;;;;;5067060;28;20508;-67
2021/12/30 06:35:35;;;;;;;2.17;1.30;;;13.40;99.90;;;;;;5073645;28;20478;-67
2021/12/30 06:38:03;;;;;;;1.53;1.10;;;13.40;99.90;;;;;;5059292;28;22551;-68
2021/12/30 06:40:32;;;;;;;3.00;1.67;;;13.40;99.90;;;;;;5047338;28;20468;-67
2021/12/30 06:42:59;;;;;;;3.97;2.00;;;13.40;99.90;;;;;;5066026;28;20541;-67
2021/12/30 06:45:26;;;;;;;2.00;1.30;;;13.40;99.90;;;;;;5062928;28;20462;-67
2021/12/30 06:47:53;;;;;;;3.50;1.83;;;13.40;99.90;;;;;;5070293;28;20948;-67
2021/12/30 06:50:24;;;;;;;2.97;2.37;;;13.50;99.90;;;;;;5072793;28;20504;-67
2021/12/30 06:52:51;;;;;;;2.93;1.80;;;13.50;99.90;;;;;;5047432;28;20461;-67
2021/12/30 06:55:18;;;;;;;1.53;1.30;;;13.60;99.90;;;;;;5067438;28;21091;-67
2021/12/30 06:57:46;;;;;;;6.77;3.10;;;13.50;99.90;;;;;;5065438;28;21217;-68
2021/12/30 07:00:14;;;;;;;2.27;1.77;;;13.40;99.90;;;;;;5061698;28;21042;-67
2021/12/30 07:02:43;;;;;;;3.93;2.70;;;13.50;99.90;;;;;;5037456;28;20461;-67
2021/12/30 07:05:11;;;;;;;4.30;3.03;;;13.50;99.90;;;;;;5059510;28;20480;-68
2021/12/30 07:07:40;;;;;;;7.60;3.73;;;13.50;99.90;;;;;;5057972;28;20513;-68
2021/12/30 07:10:08;;;;;;;6.53;5.40;;;13.50;99.90;;;;;;5050036;28;20548;-68
2021/12/30 07:12:37;;;;;;;10.63;4.90;;;13.50;99.90;;;;;;5052359;28;20544;-68
2021/12/30 07:15:06;;;;;;;10.60;6.13;;;13.50;99.90;;;;;;5047559;28;20485;-67
2021/12/30 07:17:33;;;;;;;9.53;7.50;;;13.60;99.90;;;;;;5049329;28;20569;-69
2021/12/30 07:20:01;;;;;;;9.37;5.77;;;13.60;99.90;;;;;;5065707;28;20449;-67
2021/12/30 07:22:28;;;;;;;10.40;5.17;;;13.60;99.90;;;;;;5055266;28;20528;-67
2021/12/30 07:24:56;;;;;;;10.97;7.27;;;13.70;99.90;;;;;;5053205;28;20519;-67
2021/12/30 07:27:23;;;;;;;4.90;4.40;;;13.70;99.90;;;;;;5055236;28;20456;-67
2021/12/30 07:29:50;;;;;;;9.77;5.87;;;13.80;99.90;;;;;;5053187;28;20907;-68
2021/12/30 07:32:18;;;;;;;8.60;4.97;;;13.80;99.90;;;;;;5046312;28;20461;-66
2021/12/30 07:34:45;;;;;;;18.60;5.30;;;13.80;99.90;;;;;;5063261;28;20611;-67
2021/12/30 07:37:14;;;;;;;10.20;6.40;;;13.80;99.90;;;;;;5064977;28;20478;-67
2021/12/30 07:39:41;;;;;;;10.90;6.80;;;13.90;99.90;;;;;;5058686;28;21227;-66
2021/12/30 07:42:08;;;;;;;6.60;4.90;;;13.80;99.90;;;;;;5062918;28;20476;-68
2021/12/30 07:44:36;;;;;;;10.50;6.33;;;13.90;99.90;;;;;;5067846;28;20465;-68
2021/12/30 07:47:03;;;;;;;8.40;5.37;;;13.80;99.90;;;;;;5069844;28;22376;-68
2021/12/30 07:49:32;;;;;;;7.13;4.50;;;13.90;99.90;;;;;;5070100;28;20463;-67
2021/12/30 07:51:59;;;;;;;3.67;3.10;;;13.90;99.90;;;;;;5055051;28;20463;-68
2021/12/30 07:54:26;;;;;;;8.97;5.63;;;13.90;99.90;;;;;;5070792;28;21927;-68
2021/12/30 07:56:53;;;;;;;6.30;4.97;;;14.00;99.90;;;;;;5065867;28;20587;-68
2021/12/30 07:59:20;;;;;;;3.73;3.23;;;14.00;99.90;;;;;;5055280;28;20589;-68
2021/12/30 08:01:47;;;;;;;8.30;4.43;;;14.00;99.90;;;;;;5057704;28;20550;-68
2021/12/30 08:04:14;;;;;;;4.20;3.73;;;14.00;99.90;;;;;;5051072;28;20462;-67
2021/12/30 08:06:43;;;;;;;6.97;3.90;;;14.10;99.90;;;;;;5041497;28;21022;-65
2021/12/30 08:09:10;;;;;;;6.37;5.20;;;14.10;99.90;;;;;;5051837;28;20889;-68
2021/12/30 08:11:37;;;;;;;6.80;4.83;;;14.10;99.90;;;;;;5060330;28;20510;-68
2021/12/30 08:14:04;;;;;;;5.27;2.70;;;14.10;99.90;;;;;;5054513;28;20465;-67
2021/12/30 08:16:31;;;;;;;6.13;4.50;;;14.20;99.90;;;;;;5043500;28;20465;-68
2021/12/30 08:18:58;;;;;;;4.30;2.43;;;14.10;99.90;;;;;;5065067;28;20579;-67
2021/12/30 08:21:26;;;;;;;5.47;3.03;;;14.10;99.90;;;;;;5051046;28;20615;-68
2021/12/30 08:23:54;;;;;;;7.47;3.83;;;14.10;99.90;;;;;;5036619;28;20466;-67
2021/12/30 08:26:22;;;;;;;4.60;3.17;;;14.10;99.90;;;;;;5033479;28;20489;-69
2021/12/30 08:28:49;;;;;;;2.60;2.23;;;14.10;99.90;;;;;;5049601;28;20458;-68
2021/12/30 08:31:16;;;;;;;8.37;4.87;;;14.10;99.90;;;;;;5049507;28;20458;-67
2021/12/30 08:33:43;;;;;;;6.27;3.20;;;14.10;99.90;;;;;;5060930;28;20593;-69
2021/12/30 08:36:11;;;;;;;6.07;3.37;;;14.10;99.90;;;;;;5046506;28;20694;-67
2021/12/30 08:38:38;;;;;;;4.77;2.90;;;14.10;99.90;;;;;;5045810;28;20705;-67
2021/12/30 08:41:06;;;;;;;2.03;1.83;;;14.10;99.90;;;;;;5059124;28;22729;-68
2021/12/30 08:43:33;;;;;;;8.73;3.70;;;14.10;99.90;;;;;;5051531;28;20454;-67
2021/12/30 08:46:03;;;;;;;5.00;4.20;;;14.10;99.90;;;;;;5044125;28;21273;-67
2021/12/30 08:48:30;;;;;;;8.17;3.83;;;14.10;99.90;;;;;;5037447;28;22228;-66
2021/12/30 08:50:57;;;;;;;6.70;4.93;;;14.10;99.90;;;;;;5039549;28;20461;-67
2021/12/30 08:53:26;;;;;;;5.40;2.90;;;14.10;99.90;;;;;;5057911;28;20512;-67
2021/12/30 08:55:53;;;;;;;6.57;3.77;;;14.20;99.90;;;;;;5048255;28;20482;-67
2021/12/30 08:58:23;;;;;;;5.03;2.67;;;14.20;99.90;;;;;;5021253;28;20610;-67
2021/12/30 09:00:50;;;;;;;5.10;3.57;;;14.20;99.90;;;;;;5058385;28;20464;-67
2021/12/30 09:03:18;;;;;;;5.03;4.00;;;14.20;99.90;;;;;;5060936;28;20854;-67
2021/12/30 09:05:45;;;;;;;3.20;2.77;;;14.20;99.90;;;;;;5047694;28;20481;-67
2021/12/30 09:08:13;;;;;;;6.70;3.90;;;14.20;99.90;;;;;;5052568;28;20584;-67
2021/12/30 09:10:45;;;;;;;5.50;2.77;;;14.10;99.90;;;;;;5041581;28;20820;-65
2021/12/30 09:13:15;;;;;;;7.10;3.13;;;14.20;99.90;;;;;;5024780;28;21360;-67
2021/12/30 09:15:44;;;;;;;4.70;3.63;;;14.20;99.90;;;;;;5043214;28;20871;-66
2021/12/30 09:18:11;;;;;;;3.43;2.20;;;14.20;99.90;;;;;;5060422;28;20458;-67
2021/12/30 09:20:40;;;;;;;8.63;5.27;;;14.10;99.90;;;;;;5061777;28;20450;-66
2021/12/30 09:23:09;;;;;;;7.53;3.73;;;14.10;99.90;;;;;;5062262;28;20458;-66
2021/12/30 09:25:37;;;;;;;6.27;4.10;;;14.00;99.90;;;;;;5047049;28;20485;-67
2021/12/30 09:28:05;;;;;;;7.63;5.13;;;14.10;99.90;;;;;;5055644;28;20547;-66
2021/12/30 09:30:32;;;;;;;9.20;5.17;;;14.10;99.90;;;;;;5050042;28;22558;-68
2021/12/30 09:33:02;;;;;;;13.63;5.37;;;14.10;99.90;;;;;;5061992;28;20485;-67
2021/12/30 09:35:29;;;;;;;5.93;4.40;;;14.10;99.90;;;;;;5059407;28;20480;-67
2021/12/30 09:37:57;;;;;;;9.73;5.43;;;14.10;99.90;;;;;;5041958;28;21091;-68
2021/12/30 09:40:27;;;;;;;10.03;6.73;;;14.10;99.90;;;;;;5057623;28;20549;-68
2021/12/30 09:43:01;;;;;;;7.00;4.90;;;14.10;99.90;;;;;;5041974;28;20456;-67
2021/12/30 09:45:29;;;;;;;9.60;5.43;;;14.20;99.90;;;;;;5048608;28;20525;-67
2021/12/30 09:47:58;;;;;;;8.03;5.10;;;14.20;99.90;;;;;;5041643;28;20501;-67
2021/12/30 09:50:28;;;;;;;6.77;4.70;;;14.30;99.90;;;;;;5050308;28;20907;-67
2021/12/30 09:52:57;;;;;;;9.23;5.30;;;14.30;99.90;;;;;;5037939;28;20607;-68
2021/12/30 09:55:25;;;;;;;8.30;4.80;;;14.40;99.90;;;;;;5040247;28;20442;-67
2021/12/30 09:57:53;;;;;;;5.00;3.47;;;14.30;99.90;;;;;;5044291;28;21480;-67
2021/12/30 10:00:20;;;;;;;7.67;5.23;;;14.40;99.90;;;;;;5058564;28;23029;-67
2021/12/30 10:02:48;;;;;;;5.50;4.33;;;14.40;99.90;;;;;;5060594;28;22909;-68
2021/12/30 10:05:17;;;;;;;12.23;5.30;;;14.40;99.90;;;;;;5056529;28;21412;-68
2021/12/30 10:07:46;;;;;;;5.87;4.73;;;14.50;99.90;;;;;;5062949;28;20486;-68
2021/12/30 10:10:27;;;;;;;8.00;4.53;;;14.50;99.90;;;;;;5052730;28;20662;-68
2021/12/30 10:12:55;;;;;;;7.87;4.27;;;14.60;99.90;;;;;;5064618;28;20579;-68
2021/12/30 10:15:25;;;;;;;4.40;2.73;;;14.60;99.90;;;;;;5051263;28;21338;-68
2021/12/30 10:17:56;;;;;;;3.80;3.17;;;14.60;99.90;;;;;;5050269;28;20480;-68
2021/12/30 10:20:27;;;;;;;2.63;2.37;;;14.70;99.90;;;;;;5062770;28;20545;-67
2021/12/30 10:22:58;;;;;;;5.70;3.10;;;14.70;99.90;;;;;;5068196;28;20472;-69
2021/12/30 10:25:31;;;;;;;3.83;2.77;;;14.80;99.90;;;;;;5056864;28;20522;-68
2021/12/30 10:28:21;;;;;;;4.43;3.13;;;14.80;99.90;;;;;;5058744;28;20533;-67
2021/12/30 10:30:50;;;;;;;4.97;2.57;;;14.80;99.90;;;;;;5058215;28;20492;-67
2021/12/30 10:33:20;;;;;;;7.67;3.80;;;14.90;99.90;;;;;;5058019;28;21002;-68
2021/12/30 10:35:47;;;;;;;2.70;1.77;;;14.90;99.90;;;;;;5049735;28;20606;-67
2021/12/30 10:38:16;;;;;;;4.90;3.93;;;14.80;99.90;;;;;;5051190;28;20562;-68
2021/12/30 10:40:45;;;;;;;5.80;3.70;;;14.80;99.90;;;;;;5057977;28;20590;-68
2021/12/30 10:43:30;;;;;;;4.20;3.20;;;14.80;99.90;;;;;;5055275;28;22114;-68
2021/12/30 10:46:13;;;;;;;3.00;2.17;;;14.80;99.90;;;;;;5047208;28;21409;-67
2021/12/30 10:48:58;;;;;;;2.80;2.00;;;14.80;99.90;;;;;;5067951;28;22180;-67
2021/12/30 10:51:28;;;;;;;3.87;2.77;;;14.80;99.90;;;;;;5054144;28;20552;-67
2021/12/30 10:53:58;;;;;;;4.47;1.43;;;14.80;99.90;;;;;;5054433;28;20485;-67
2021/12/30 10:56:32;;;;;;;4.90;2.57;;;14.90;99.90;;;;;;5020413;28;21383;-67
2021/12/30 10:59:20;;;;;;;2.73;2.10;;;14.90;99.90;;;;;;5049667;28;20454;-66
2021/12/30 11:01:50;;;;;;;2.73;2.33;;;14.90;99.90;;;;;;5050092;28;21149;-66
2021/12/30 11:04:20;;;;;;;2.90;2.30;;;15.00;99.90;;;;;;5044980;28;20469;-68
2021/12/30 11:06:48;;;;;;;3.80;2.90;;;14.90;99.90;;;;;;5050284;28;20440;-68
2021/12/30 11:09:21;;;;;;;4.80;1.83;;;15.00;99.90;;;;;;5060428;28;20505;-68
2021/12/30 11:11:53;;;;;;;2.23;1.90;;;15.00;99.90;;;;;;5042365;28;20580;-67
2021/12/30 11:14:22;;;;;;;3.50;1.90;;;15.00;99.90;;;;;;5047882;28;21601;-67
2021/12/30 11:17:14;;;;;;;1.77;1.40;;;15.10;99.90;;;;;;5056947;28;20627;-68
2021/12/30 11:19:43;;;;;;;3.60;2.60;;;15.10;99.90;;;;;;5073275;28;21029;-68
2021/12/30 11:22:14;;;;;;;1.83;1.50;;;15.20;99.90;;;;;;5041879;28;20604;-67
2021/12/30 11:24:43;;;;;;;1.70;1.40;;;15.10;99.90;;;;;;5053371;28;20539;-66
2021/12/30 11:27:12;;;;;;;2.47;1.60;;;15.10;99.90;;;;;;5061409;28;20588;-67
2021/12/30 11:29:45;;;;;;;3.80;1.50;;;15.10;99.90;;;;;;5062459;28;20507;-67
2021/12/30 11:32:13;;;;;;;3.77;1.57;;;15.10;99.90;;;;;;5039818;28;20562;-67
2021/12/30 11:34:41;;;;;;;2.60;2.17;;;15.20;99.90;;;;;;5034078;28;20536;-67
2021/12/30 11:37:08;;;;;;;1.30;1.13;;;15.20;99.90;;;;;;5057983;28;20470;-66
2021/12/30 11:39:40;;;;;;;2.20;1.47;;;15.30;99.90;;;;;;5061988;28;20942;-68
2021/12/30 11:42:13;;;;;;;2.37;1.80;;;15.30;99.90;;;;;;5059185;28;20497;-68
2021/12/30 11:44:46;;;;;;;2.47;2.27;;;15.30;99.90;;;;;;5064812;28;20468;-68
2021/12/30 11:47:39;;;;;;;4.37;2.47;;;15.30;99.90;;;;;;5055910;28;20485;-68
2021/12/30 11:50:12;;;;;;;8.10;2.80;;;15.20;99.90;;;;;;5051402;28;21794;-69
2021/12/30 11:52:54;;;;;;;1.60;1.20;;;15.30;99.90;;;;;;5057882;28;20540;-68
2021/12/30 11:55:41;;;;;;;3.50;3.20;;;15.30;99.90;;;;;;5059227;28;20480;-67
2021/12/30 11:58:45;;;;;;;1.87;1.70;;;15.20;99.90;;;;;;5045151;28;20549;-67
2021/12/30 12:01:40;;;;;;;2.67;1.90;;;15.30;99.90;;;;;;5049430;28;20445;-67
2021/12/30 12:04:15;;;;;;;2.13;1.73;;;15.20;99.90;;;;;;5063133;28;20457;-67
2021/12/30 12:06:59;;;;;;;1.67;1.57;;;15.20;99.90;;;;;;5072599;28;20573;-68
2021/12/30 12:09:40;;;;;;;1.70;1.60;;;15.30;99.90;;;;;;5064244;28;20878;-68
2021/12/30 12:12:10;;;;;;;3.77;2.40;;;15.20;99.90;;;;;;5049995;28;20455;-68
2021/12/30 12:14:39;;;;;;;2.30;1.70;;;15.20;99.90;;;;;;5060911;28;20592;-68
2021/12/30 12:17:08;;;;;;;3.37;2.20;;;15.20;99.90;;;;;;5055562;28;20470;-68
2021/12/30 12:19:40;;;;;;;1.53;1.37;;;15.20;99.90;;;;;;5058462;28;20572;-67
2021/12/30 12:22:10;;;;;;;4.03;1.60;;;15.20;99.90;;;;;;5033207;28;21230;-67
2021/12/30 12:24:41;;;;;;;4.80;2.23;;;15.10;99.90;;;;;;5035441;28;20495;-66
2021/12/30 12:27:30;;;;;;;3.40;1.90;;;15.10;99.90;;;;;;5024143;28;20935;-67
2021/12/30 12:30:00;;;;;;;3.23;2.07;;;15.20;99.90;;;;;;5065548;28;20544;-67
2021/12/30 12:32:37;;;;;;;1.47;1.37;;;15.20;99.90;;;;;;5051185;28;20466;-67
2021/12/30 12:35:06;;;;;;;2.30;2.10;;;15.10;99.90;;;;;;5060869;28;20458;-67
2021/12/30 12:37:56;;;;;;;2.60;1.90;;;15.10;99.90;;;;;;5062364;28;21071;-67
2021/12/30 12:40:32;;;;;;;2.60;2.40;;;15.10;99.90;;;;;;5041479;28;20484;-67
2021/12/30 12:43:27;;;;;;;2.53;2.07;;;15.20;99.90;;;;;;5053805;28;20871;-68
2021/12/30 12:46:02;;;;;;;2.27;1.50;;;15.20;99.90;;;;;;5056060;28;20569;-67
2021/12/30 12:48:39;;;;;;;5.17;2.33;;;15.30;99.90;;;;;;5036331;28;21493;-67
2021/12/30 12:51:24;;;;;;;2.33;2.00;;;15.30;99.90;;;;;;5068295;28;20544;-66
2021/12/30 12:54:01;;;;;;;5.23;2.37;;;15.30;99.90;;;;;;5038438;28;20541;-67